createdAt,value
2022-08-03T00:01:53.239Z,70.38
2022-08-03T00:04:20.183Z,70.30
2022-08-03T00:06:47.041Z,70.00
2022-08-03T00:09:13.880Z,70.23
2022-08-03T00:11:40.710Z,70.37
2022-08-03T00:14:08.377Z,70.59
2022-08-03T00:16:35.333Z,71.14
2022-08-03T00:19:03.276Z,70.82
2022-08-03T00:21:30.186Z,70.63
2022-08-03T00:23:57.045Z,70.44
2022-08-03T00:26:23.929Z,70.47
2022-08-03T00:28:51.433Z,71.00
2022-08-03T00:31:27.742Z,70.43
2022-08-03T00:34:06.135Z,70.18
2022-08-03T00:36:33.795Z,70.86
2022-08-03T00:39:00.622Z,70.40
2022-08-03T00:41:27.597Z,70.14
2022-08-03T00:43:54.433Z,69.73
2022-08-03T00:46:22.454Z,70.60
2022-08-03T00:48:53.319Z,70.02
2022-08-03T00:51:23.311Z,69.86
2022-08-03T00:53:50.996Z,70.62
2022-08-03T00:56:18.401Z,70.25
2022-08-03T00:58:46.848Z,70.69
2022-08-03T01:01:14.317Z,70.71
2022-08-03T01:03:41.586Z,71.19
2022-08-03T01:06:38.777Z,71.63
2022-08-03T01:10:01.236Z,71.73
2022-08-03T01:14:01.202Z,72.01
2022-08-03T01:16:52.819Z,72.26
2022-08-03T01:19:45.849Z,72.79
2022-08-03T01:22:50.063Z,72.93
2022-08-03T01:25:54.577Z,72.89
2022-08-03T01:28:54.632Z,72.81
2022-08-03T01:31:28.574Z,73.20
2022-08-03T01:34:03.224Z,73.06
2022-08-03T01:36:37.421Z,72.73
2022-08-03T01:39:11.367Z,72.83
2022-08-03T01:41:49.559Z,72.79
2022-08-03T01:44:29.459Z,72.96
2022-08-03T01:47:00.810Z,72.71
2022-08-03T01:49:30.390Z,72.70
2022-08-03T01:52:04.542Z,72.85
2022-08-03T01:54:42.214Z,73.12
2022-08-03T01:57:11.050Z,73.31
2022-08-03T01:59:40.393Z,73.54
2022-08-03T02:02:27.683Z,71.65
2022-08-03T02:04:57.656Z,72.39
2022-08-03T02:07:27.081Z,72.59
2022-08-03T02:09:55.697Z,73.40
2022-08-03T02:12:25.703Z,73.89
2022-08-03T02:14:54.154Z,74.15
2022-08-03T02:17:38.974Z,74.26
2022-08-03T02:20:11.833Z,73.99
2022-08-03T02:22:43.218Z,73.89
2022-08-03T02:25:13.465Z,73.89
2022-08-03T02:27:48.538Z,74.01
2022-08-03T02:30:15.951Z,74.26
2022-08-03T02:32:52.109Z,74.49
2022-08-03T02:35:23.318Z,74.47
2022-08-03T02:38:03.357Z,74.19
2022-08-03T02:40:32.289Z,74.10
2022-08-03T02:43:12.109Z,74.37
2022-08-03T02:45:45.642Z,73.90
2022-08-03T02:48:17.776Z,73.68
2022-08-03T02:50:45.946Z,73.36
2022-08-03T02:53:14.105Z,73.09
2022-08-03T02:55:43.287Z,73.60
2022-08-03T02:58:14.349Z,73.77
2022-08-03T03:00:44.437Z,73.19
2022-08-03T03:03:11.780Z,73.50
2022-08-03T03:05:54.774Z,72.93
2022-08-03T03:08:28.222Z,74.03
2022-08-03T03:11:01.018Z,73.40
2022-08-03T03:13:30.500Z,73.40
2022-08-03T03:16:04.133Z,73.53
2022-08-03T03:18:35.375Z,73.76
2022-08-03T03:21:04.157Z,73.39
2022-08-03T03:23:36.026Z,72.46
2022-08-03T03:26:04.095Z,72.89
2022-08-03T03:28:32.508Z,72.46
2022-08-03T03:31:00.740Z,73.05
2022-08-03T03:33:28.630Z,74.08
2022-08-03T03:35:56.166Z,74.23
2022-08-03T03:38:22.994Z,74.21
2022-08-03T03:40:50.152Z,74.30
2022-08-03T03:43:18.568Z,74.35
2022-08-03T03:45:47.601Z,73.84
2022-08-03T03:48:15.329Z,73.84
2022-08-03T03:50:43.925Z,73.98
2022-08-03T03:53:12.943Z,73.81
2022-08-03T03:55:59.333Z,73.61
2022-08-03T03:58:27.783Z,73.24
2022-08-03T04:00:54.653Z,73.15
2022-08-03T04:03:21.706Z,73.68
2022-08-03T04:06:07.307Z,73.93
2022-08-03T04:08:52.655Z,73.98
2022-08-03T04:11:52.087Z,73.85
2022-08-03T04:14:30.511Z,73.30
2022-08-03T04:17:03.563Z,72.98
2022-08-03T04:19:43.768Z,72.93
2022-08-03T04:22:12.662Z,72.89
2022-08-03T04:24:50.018Z,72.71
2022-08-03T04:27:31.739Z,72.94
2022-08-03T04:30:02.860Z,73.19
2022-08-03T04:32:31.281Z,72.81
2022-08-03T04:34:58.386Z,73.16
2022-08-03T04:37:39.822Z,73.50
2022-08-03T04:40:11.413Z,73.72
2022-08-03T04:42:39.516Z,73.84
2022-08-03T04:45:08.213Z,73.97
2022-08-03T04:47:35.881Z,73.85
2022-08-03T04:50:11.909Z,73.89
2022-08-03T04:52:40.024Z,73.61
2022-08-03T04:55:07.453Z,72.87
2022-08-03T04:57:34.269Z,73.11
2022-08-03T05:00:03.630Z,73.17
2022-08-03T05:02:31.392Z,73.05
2022-08-03T05:04:59.981Z,73.83
2022-08-03T05:07:35.584Z,73.36
2022-08-03T05:10:05.960Z,73.51
2022-08-03T05:12:42.567Z,73.34
2022-08-03T05:15:10.295Z,73.37
2022-08-03T05:17:37.108Z,73.06
2022-08-03T05:20:05.481Z,72.39
2022-08-03T05:22:32.500Z,72.21
2022-08-03T05:25:01.136Z,72.21
2022-08-03T05:27:27.984Z,71.67
2022-08-03T05:29:54.853Z,71.34
2022-08-03T05:32:22.198Z,70.04
2022-08-03T05:34:49.228Z,70.11
2022-08-03T05:37:16.098Z,69.11
2022-08-03T05:39:43.377Z,68.20
2022-08-03T05:42:10.641Z,68.12
2022-08-03T05:44:38.759Z,67.39
2022-08-03T05:47:06.177Z,67.27
2022-08-03T05:49:33.149Z,66.63
2022-08-03T05:52:12.646Z,65.84
2022-08-03T05:54:57.432Z,65.54
2022-08-03T05:57:25.794Z,65.11
2022-08-03T05:59:54.772Z,64.57
2022-08-03T06:02:26.509Z,64.21
2022-08-03T06:04:53.607Z,63.32
2022-08-03T06:07:20.424Z,63.00
2022-08-03T06:10:34.435Z,62.92
2022-08-03T06:12:36.787Z,62.28
2022-08-03T06:15:07.841Z,62.04
2022-08-03T06:17:48.961Z,61.09
2022-08-03T06:20:20.559Z,60.72
2022-08-03T06:22:51.403Z,59.91
2022-08-03T06:25:27.553Z,59.73
2022-08-03T06:27:54.408Z,56.43
2022-08-03T06:30:21.612Z,56.67
2022-08-03T06:32:52.152Z,56.74
2022-08-03T06:35:20.122Z,55.81
2022-08-03T06:37:49.630Z,54.48
2022-08-03T06:40:29.634Z,53.80
2022-08-03T06:42:57.964Z,53.97
2022-08-03T06:45:25.345Z,52.75
2022-08-03T06:48:07.062Z,52.75
2022-08-03T06:50:36.709Z,51.66
2022-08-03T06:53:05.325Z,50.79
2022-08-03T06:55:33.118Z,49.87
2022-08-03T06:58:03.190Z,49.37
2022-08-03T07:00:30.966Z,48.87
2022-08-03T07:02:58.588Z,48.95
2022-08-03T07:05:26.176Z,49.28
2022-08-03T07:07:57.619Z,48.75
2022-08-03T07:10:24.898Z,49.50
2022-08-03T07:12:56.006Z,48.31
2022-08-03T07:15:54.916Z,48.35
2022-08-03T07:18:11.840Z,46.73
2022-08-03T07:20:38.733Z,47.03
2022-08-03T07:23:05.605Z,46.44
2022-08-03T07:25:32.533Z,45.70
2022-08-03T07:27:59.663Z,45.52
2022-08-03T07:30:26.542Z,45.62
2022-08-03T07:32:53.441Z,44.35
2022-08-03T07:35:25.069Z,45.31
2022-08-03T07:37:54.750Z,46.00
2022-08-03T07:40:22.852Z,44.54
2022-08-03T07:42:52.275Z,44.34
2022-08-03T07:45:23.311Z,46.52
2022-08-03T07:47:53.558Z,44.88
2022-08-03T07:50:21.809Z,44.77
2022-08-03T07:52:49.780Z,44.02
2022-08-03T07:55:21.204Z,44.05
2022-08-03T07:58:00.275Z,43.46
2022-08-03T08:00:27.251Z,43.78
2022-08-03T08:02:54.227Z,42.82
2022-08-03T08:05:21.354Z,43.29
2022-08-03T08:07:50.994Z,41.96
2022-08-03T08:10:18.779Z,42.84
2022-08-03T08:12:45.788Z,42.58
2022-08-03T08:15:12.837Z,41.77
2022-08-03T08:17:50.045Z,42.37
2022-08-03T08:20:30.777Z,42.12
2022-08-03T08:23:19.963Z,42.22
2022-08-03T08:25:52.908Z,41.84
2022-08-03T08:28:32.151Z,42.93
2022-08-03T08:31:00.706Z,42.55
2022-08-03T08:33:37.350Z,42.07
2022-08-03T08:36:14.815Z,41.90
2022-08-03T08:38:44.370Z,41.90
2022-08-03T08:41:13.422Z,41.90
2022-08-03T08:43:41.805Z,42.49
2022-08-03T08:46:12.998Z,41.87
2022-08-03T08:48:51.595Z,41.62
2022-08-03T08:51:21.350Z,42.37
2022-08-03T08:53:53.648Z,41.04
2022-08-03T08:56:25.334Z,41.80
2022-08-03T08:58:57.965Z,41.91
2022-08-03T09:01:25.402Z,39.77
2022-08-03T09:03:54.167Z,42.02
2022-08-03T09:06:22.762Z,40.46
2022-08-03T09:08:49.997Z,41.22
2022-08-03T09:11:21.408Z,40.97
2022-08-03T09:14:10.284Z,40.82
2022-08-03T09:17:02.504Z,39.46
2022-08-03T09:19:31.463Z,40.79
2022-08-03T09:22:16.630Z,40.74
2022-08-03T09:25:23.878Z,41.24
2022-08-03T09:27:51.644Z,40.11
2022-08-03T09:30:33.767Z,40.64
2022-08-03T09:33:08.543Z,40.36
2022-08-03T09:35:57.391Z,39.49
2022-08-03T09:38:28.124Z,39.64
2022-08-03T09:40:59.936Z,39.20
2022-08-03T09:43:28.588Z,38.26
2022-08-03T09:46:07.266Z,37.13
2022-08-03T09:48:37.354Z,38.86
2022-08-03T09:51:14.268Z,39.08
2022-08-03T09:53:58.819Z,37.19
2022-08-03T09:56:45.998Z,36.89
2022-08-03T09:59:23.741Z,37.92
2022-08-03T10:01:50.681Z,36.50
2022-08-03T10:04:17.690Z,36.45
2022-08-03T10:07:12.551Z,35.67
2022-08-03T10:09:57.074Z,35.51
2022-08-03T10:12:25.329Z,36.30
2022-08-03T10:14:53.308Z,36.45
2022-08-03T10:17:22.222Z,35.38
2022-08-03T10:19:50.474Z,35.69
2022-08-03T10:22:22.883Z,34.71
2022-08-03T10:25:09.721Z,34.18
2022-08-03T10:27:43.017Z,33.27
2022-08-03T10:30:11.982Z,33.01
2022-08-03T10:32:46.213Z,33.34
2022-08-03T10:35:21.654Z,33.23
2022-08-03T10:38:00.632Z,33.63
2022-08-03T10:43:23.086Z,33.81
2022-08-03T10:45:51.886Z,32.64
2022-08-03T10:48:19.846Z,32.91
2022-08-03T10:50:49.139Z,31.41
2022-08-03T10:53:18.607Z,31.82
2022-08-03T10:56:05.871Z,30.49
2022-08-03T10:58:53.311Z,30.49
2022-08-03T11:01:59.025Z,30.79
2022-08-03T11:04:29.518Z,31.44
2022-08-03T11:07:24.833Z,31.71
2022-08-03T11:09:55.321Z,31.80
2022-08-03T11:12:32.252Z,30.22
2022-08-03T11:15:07.150Z,32.33
2022-08-03T11:17:46.518Z,32.73
2022-08-03T11:20:51.041Z,30.43
2022-08-03T11:24:05.253Z,32.19
2022-08-03T11:26:29.214Z,29.55
2022-08-03T11:29:31.708Z,30.54
2022-08-03T11:31:58.872Z,29.26
2022-08-03T11:34:26.548Z,28.94
2022-08-03T11:37:26.361Z,29.10
2022-08-03T11:39:57.191Z,28.84
2022-08-03T11:42:24.261Z,28.35
2022-08-03T11:44:53.248Z,26.98
2022-08-03T11:47:26.828Z,26.40
2022-08-03T11:50:00.584Z,24.87
2022-08-03T11:52:34.753Z,26.20
2022-08-03T11:55:02.330Z,25.99
2022-08-03T11:59:17.833Z,26.51
2022-08-03T12:00:33.205Z,26.40
2022-08-03T12:03:08.018Z,25.40
2022-08-03T12:05:51.129Z,25.36
2022-08-03T12:08:28.017Z,25.75
2022-08-03T12:10:57.558Z,24.51
2022-08-03T12:14:44.169Z,24.66
2022-08-03T12:16:21.516Z,25.18
2022-08-03T12:19:02.847Z,25.20
2022-08-03T12:21:31.131Z,24.92
2022-08-03T12:24:03.942Z,24.07
2022-08-03T12:26:59.032Z,24.36
2022-08-03T12:29:27.380Z,24.25
2022-08-03T12:31:56.079Z,25.84
2022-08-03T12:34:23.226Z,24.51
2022-08-03T12:36:53.217Z,24.53
2022-08-03T12:39:25.585Z,24.73
2022-08-03T12:41:57.391Z,24.48
2022-08-03T12:44:35.927Z,24.50
2022-08-03T12:47:06.821Z,24.93
2022-08-03T12:49:51.738Z,24.99
2022-08-03T12:52:22.193Z,24.29
2022-08-03T12:55:00.663Z,24.40
2022-08-03T12:57:41.924Z,23.59
2022-08-03T13:00:21.291Z,23.85
2022-08-03T13:05:54.485Z,24.71
2022-08-03T13:08:25.074Z,24.24
2022-08-03T13:10:52.155Z,23.62
2022-08-03T13:13:20.753Z,23.56
2022-08-03T13:15:48.351Z,22.84
2022-08-03T13:18:17.353Z,23.33
2022-08-03T13:20:44.637Z,23.94
2022-08-03T13:23:21.907Z,22.58
2022-08-03T13:25:55.132Z,23.41
2022-08-03T13:28:23.176Z,23.51
2022-08-03T13:30:50.182Z,23.18
2022-08-03T13:33:17.510Z,22.95
2022-08-03T13:35:44.415Z,24.08
2022-08-03T13:38:11.370Z,24.39
2022-08-03T13:40:41.730Z,22.79
2022-08-03T13:43:09.025Z,22.89
2022-08-03T13:45:36.183Z,23.60
2022-08-03T13:48:03.067Z,24.18
2022-08-03T13:50:31.296Z,23.35
2022-08-03T13:52:58.650Z,24.01
2022-08-03T13:55:25.570Z,24.29
2022-08-03T13:58:03.078Z,23.27
2022-08-03T14:00:34.061Z,23.26
2022-08-03T14:03:09.088Z,23.34
2022-08-03T14:05:40.215Z,23.15
2022-08-03T14:08:07.842Z,23.70
2022-08-03T14:10:41.120Z,23.00
2022-08-03T14:13:08.809Z,23.51
2022-08-03T14:15:38.249Z,23.70
2022-08-03T14:18:13.020Z,24.46
2022-08-03T14:20:47.757Z,22.61
2022-08-03T14:23:17.658Z,22.66
2022-08-03T14:25:51.722Z,22.62
2022-08-03T14:28:22.934Z,23.00
2022-08-03T14:30:51.710Z,22.29
2022-08-03T14:33:18.654Z,23.22
2022-08-03T14:35:45.494Z,22.14
2022-08-03T14:38:12.350Z,21.61
2022-08-03T14:40:39.468Z,22.25
2022-08-03T14:43:06.413Z,21.63
2022-08-03T14:45:34.291Z,20.85
2022-08-03T14:50:10.491Z,21.67
2022-08-03T14:50:51.739Z,21.23
2022-08-03T14:53:19.711Z,21.40
2022-08-03T14:55:49.941Z,21.16
2022-08-03T14:58:21.426Z,21.45
2022-08-03T15:00:51.228Z,20.87
2022-08-03T15:03:25.396Z,20.28
2022-08-03T15:05:54.745Z,20.55
2022-08-03T15:08:23.518Z,19.11
2022-08-03T15:10:51.559Z,19.39
2022-08-03T15:13:19.903Z,20.03
2022-08-03T15:15:47.858Z,20.43
2022-08-03T15:18:14.761Z,19.36
2022-08-03T15:20:46.351Z,18.81
2022-08-03T15:23:15.575Z,18.54
2022-08-03T15:26:04.211Z,17.91
2022-08-03T15:28:31.903Z,18.01
2022-08-03T15:30:58.870Z,17.21
2022-08-03T15:33:25.696Z,17.01
2022-08-03T15:35:53.318Z,16.64
2022-08-03T15:38:25.734Z,16.78
2022-08-03T15:40:56.033Z,17.09
2022-08-03T15:43:23.890Z,17.17
2022-08-03T15:46:27.761Z,17.83
2022-08-03T15:48:45.632Z,17.96
2022-08-03T15:51:12.547Z,18.54
2022-08-03T15:53:39.445Z,17.56
2022-08-03T15:56:12.106Z,18.75
2022-08-03T15:59:09.397Z,19.65
2022-08-03T16:01:28.137Z,20.99
2022-08-03T16:03:55.011Z,21.93
2022-08-03T16:06:35.032Z,21.63
2022-08-03T16:09:23.385Z,21.81
2022-08-03T16:11:53.585Z,23.08
2022-08-03T16:14:32.671Z,23.23
2022-08-03T16:17:05.214Z,22.94
2022-08-03T16:19:32.153Z,22.99
2022-08-03T16:21:59.170Z,21.80
2022-08-03T16:24:28.035Z,22.17
2022-08-03T16:26:56.020Z,23.53
2022-08-03T16:29:23.807Z,22.98
2022-08-03T16:31:51.850Z,23.39
2022-08-03T16:34:19.307Z,24.73
2022-08-03T16:36:46.117Z,24.88
2022-08-03T16:39:13.023Z,26.23
2022-08-03T16:41:54.393Z,26.90
2022-08-03T16:44:28.636Z,26.17
2022-08-03T16:46:55.467Z,26.20
2022-08-03T16:49:54.593Z,26.83
2022-08-03T16:52:09.202Z,26.90
2022-08-03T16:54:39.814Z,27.28
2022-08-03T16:57:07.529Z,27.84
2022-08-03T16:59:36.731Z,27.83
2022-08-03T17:02:12.706Z,27.85
2022-08-03T17:04:40.250Z,26.39
2022-08-03T17:07:08.919Z,28.22
2022-08-03T17:09:39.051Z,28.81
2022-08-03T17:12:07.536Z,29.08
2022-08-03T17:14:39.755Z,29.41
2022-08-03T17:17:17.862Z,28.82
2022-08-03T17:19:47.478Z,30.79
2022-08-03T17:22:28.646Z,30.63
2022-08-03T17:24:58.750Z,31.82
2022-08-03T17:28:49.456Z,32.77
2022-08-03T17:30:17.527Z,31.75
2022-08-03T17:32:57.063Z,32.51
2022-08-03T17:35:34.333Z,32.09
2022-08-03T17:38:07.734Z,32.44
2022-08-03T17:40:38.035Z,31.94
2022-08-03T17:44:14.509Z,32.15
2022-08-03T17:45:55.039Z,32.12
2022-08-03T17:48:24.954Z,32.75
2022-08-03T17:51:07.781Z,31.11
2022-08-03T17:53:53.935Z,32.68
2022-08-03T17:56:45.668Z,32.75
2022-08-03T17:59:51.521Z,32.80
2022-08-03T18:02:57.133Z,32.38
2022-08-03T18:06:10.356Z,33.09
2022-08-03T18:08:24.797Z,34.37
2022-08-03T18:11:03.338Z,34.98
2022-08-03T18:13:57.799Z,36.27
2022-08-03T18:16:34.017Z,36.05
2022-08-03T18:19:09.227Z,37.27
2022-08-03T18:22:03.231Z,37.54
2022-08-03T18:24:29.095Z,38.06
2022-08-03T18:26:59.247Z,37.48
2022-08-03T18:29:27.629Z,38.85
2022-08-03T18:32:03.745Z,38.39
2022-08-03T18:34:34.480Z,38.42
2022-08-03T18:37:07.234Z,38.85
2022-08-03T18:39:49.495Z,38.53
2022-08-03T18:42:19.423Z,39.45
2022-08-03T18:44:52.945Z,39.54
2022-08-03T18:47:50.800Z,40.00
2022-08-03T18:50:50.172Z,39.63
2022-08-03T18:54:02.992Z,40.10
2022-08-03T18:56:29.840Z,41.57
2022-08-03T18:59:11.479Z,42.35
2022-08-03T19:02:00.852Z,42.87
2022-08-03T19:05:03.731Z,42.76
2022-08-03T19:07:36.091Z,43.68
2022-08-03T19:10:10.159Z,43.93
2022-08-03T19:12:54.363Z,42.88
2022-08-03T19:15:36.953Z,43.30
2022-08-03T19:18:11.807Z,43.18
2022-08-03T19:20:46.715Z,42.97
2022-08-03T19:23:14.338Z,42.56
2022-08-03T19:25:41.435Z,42.73
2022-08-03T19:28:09.371Z,43.00
2022-08-03T19:30:53.290Z,43.31
2022-08-03T19:33:21.530Z,43.98
2022-08-03T19:35:54.891Z,44.54
2022-08-03T19:38:28.608Z,44.22
2022-08-03T19:41:03.170Z,44.92
2022-08-03T19:43:52.850Z,44.99
2022-08-03T19:46:30.913Z,45.69
2022-08-03T19:49:15.243Z,45.35
2022-08-03T19:52:00.634Z,45.90
2022-08-03T19:54:39.656Z,46.29
2022-08-03T19:57:24.787Z,45.56
2022-08-03T19:59:55.062Z,45.79
2022-08-03T20:02:27.268Z,45.67
2022-08-03T20:04:57.032Z,45.57
2022-08-03T20:07:25.970Z,45.36
2022-08-03T20:09:56.584Z,44.72
2022-08-03T20:12:27.653Z,44.48
2022-08-03T20:14:57.812Z,44.30
2022-08-03T20:17:54.127Z,44.47
2022-08-03T20:20:13.010Z,45.35
2022-08-03T20:22:45.551Z,46.06
2022-08-03T20:25:20.642Z,46.17
2022-08-03T20:28:07.272Z,46.70
2022-08-03T20:30:39.458Z,46.55
2022-08-03T20:33:09.483Z,46.45
2022-08-03T20:35:36.378Z,46.83
2022-08-03T20:38:03.712Z,46.83
2022-08-03T20:40:30.544Z,46.99
2022-08-03T20:42:57.690Z,47.77
2022-08-03T20:45:58.553Z,47.37
2022-08-03T20:48:11.486Z,48.03
2022-08-03T20:50:44.045Z,49.07
2022-08-03T20:53:12.503Z,49.30
2022-08-03T20:55:47.499Z,49.61
2022-08-03T20:58:27.210Z,49.61
2022-08-03T21:00:56.731Z,50.01
2022-08-03T21:03:23.674Z,50.01
2022-08-03T21:05:53.542Z,50.19
2022-08-03T21:08:46.867Z,50.20
2022-08-03T21:11:18.828Z,50.04
2022-08-03T21:14:09.164Z,50.80
2022-08-03T21:16:40.635Z,51.04
2022-08-03T21:19:07.972Z,51.06
2022-08-03T21:21:39.055Z,51.07
2022-08-03T21:24:08.196Z,51.62
2022-08-03T21:26:38.939Z,51.82
2022-08-03T21:29:06.246Z,51.81
2022-08-03T21:31:33.117Z,51.70
2022-08-03T21:34:05.321Z,51.34
2022-08-03T21:36:35.279Z,50.54
2022-08-03T21:39:06.925Z,51.12
2022-08-03T21:41:34.475Z,51.70
2022-08-03T21:44:03.215Z,51.57
2022-08-03T21:46:37.990Z,52.34
2022-08-03T21:50:06.082Z,52.20
2022-08-03T21:51:59.493Z,51.40
2022-08-03T21:54:39.612Z,50.80
2022-08-03T21:57:24.186Z,50.63
2022-08-03T21:59:57.254Z,50.25
2022-08-03T22:02:31.407Z,50.04
2022-08-03T22:04:59.335Z,50.77
2022-08-03T22:07:28.807Z,50.31
2022-08-03T22:09:57.382Z,50.10
2022-08-03T22:12:28.651Z,50.85
2022-08-03T22:15:00.501Z,51.43
2022-08-03T22:17:54.825Z,52.44
2022-08-03T22:20:21.925Z,53.37
2022-08-03T22:22:56.095Z,53.48
2022-08-03T22:25:29.037Z,53.40
2022-08-03T22:27:58.463Z,53.23
2022-08-03T22:30:25.888Z,52.99
2022-08-03T22:32:56.072Z,53.25
2022-08-03T22:35:26.027Z,52.79
2022-08-03T22:37:58.761Z,53.92
2022-08-03T22:40:27.652Z,54.07
2022-08-03T22:42:54.967Z,54.34
2022-08-03T22:46:07.386Z,54.39
2022-08-03T22:48:08.743Z,54.13
2022-08-03T22:50:35.860Z,53.93
2022-08-03T22:53:02.862Z,54.82
2022-08-03T22:55:31.254Z,55.44
2022-08-03T22:57:58.396Z,55.62
2022-08-03T23:00:25.421Z,55.78
2022-08-03T23:02:54.638Z,55.48
2022-08-03T23:06:00.693Z,54.68
2022-08-03T23:08:15.310Z,54.22
2022-08-03T23:10:47.207Z,54.12
2022-08-03T23:13:19.856Z,53.94
2022-08-03T23:15:56.187Z,53.62
2022-08-03T23:18:25.474Z,53.29
2022-08-03T23:20:53.688Z,53.14
2022-08-03T23:23:23.313Z,53.36
2022-08-03T23:25:51.770Z,53.66
2022-08-03T23:28:18.951Z,53.81
2022-08-03T23:30:47.422Z,53.14
2022-08-03T23:33:16.729Z,53.49
2022-08-03T23:36:27.885Z,53.63
2022-08-03T23:38:44.871Z,53.64
2022-08-03T23:41:13.605Z,53.39
2022-08-03T23:43:51.462Z,53.46
2022-08-03T23:46:21.985Z,53.54
2022-08-03T23:48:49.977Z,53.14
2022-08-03T23:52:02.836Z,53.16
2022-08-03T23:54:53.568Z,53.22
2022-08-03T23:57:32.783Z,53.08
